MV Scf Alpine — A8XQ2 — position and weather

sailwx.info

Track history (hours):
 
Tides and Currents Weather Stations Pressure Air Temp Water Temp Dewpoint Dewpoint Depression Visibility Wind Speed Wind Dir Waves Ship Positions

MV Scf Alpine

Last reported at 2015-May-30 05:13 UTC. Time now 2015-Aug-01 16:13 UTC.
Position N 02°02' E 102°10'.
Warning: this ship's position is months out of date.

Length 229 m; draft 8 m.

Type: Tanker. MMSI: 636014957.

Date/timePositionNaut miles runAvg speedWind from/ knotsBaromVisibWave heightAir tempDewpointWater temp
2015-May-30 05:13N 02°02' E 102°10'1014.7
2015-May-30 04:33N 01°56' E 102°19'1514.7
2015-May-30 03:34N 01°49' E 102°32'1514.4
2015-May-30 02:33N 01°44' E 102°45'7112.9
2015-May-29 21:04N 01°10' E 103°47'610.2
2015-May-29 20:32N 01°13' E 103°52'4 3.9
2015-May-29 19:31N 01°15' E 103°55'0 0.0
2015-May-29 18:28N 01°15' E 103°55'0 0.0
2015-May-29 17:25N 01°15' E 103°55'0 0.0
2015-May-29 16:28N 01°15' E 103°55'0 0.1
2015-May-29 15:22N 01°15' E 103°55'0 0.1
2015-May-29 14:25N 01°15' E 103°55'0 0.0
2015-May-29 13:28N 01°15' E 103°55'0 0.0
2015-May-29 12:04N 01°15' E 103°55'0 0.0
2015-May-29 11:28N 01°15' E 103°55'0 0.0
2015-May-29 10:28N 01°15' E 103°55'6 6.5
2015-May-29 09:33N 01°16' E 104°01'1010.2
2015-May-29 08:32N 01°17' E 104°11'  
2015-May-24 01:32N 22°08' E 114°16'1210.5
2015-May-24 00:22N 22°16' E 114°06'10 9.2
2015-May-23 23:14N 22°21' E 113°56'5 0.1
2015-May-22 05:10N 22°21' E 114°02'5 7.5
2015-May-22 04:33N 22°18' E 114°06'11 8.7
2015-May-22 03:15N 22°09' E 114°13'4 5.1
2015-May-22 02:27N 22°10' E 114°09'0 0.0
2015-May-22 00:27N 22°10' E 114°09'0 0.0
2015-May-21 22:09N 22°10' E 114°09'0 0.1
2015-May-21 21:15N 22°10' E 114°09'0 0.0
2015-May-21 20:33N 22°10' E 114°09'1 0.5
2015-May-21 19:33N 22°09' E 114°09'9 9.1
2015-May-21 18:33N 22°08' E 114°18'1211.6
2015-May-21 17:30N 22°08' E 114°32'  
Track history (hours):
 
Tides and Currents Weather Stations Pressure Air Temp Water Temp Dewpoint Dewpoint Depression Visibility Wind Speed Wind Dir Waves Ship Positions

MV Scf Alpine

Last reported at 2015-May-30 05:13 UTC. Time now 2015-Aug-01 16:13 UTC.
Position N 02°02' E 102°10'.
Warning: this ship's position is months out of date.

Length 229 m; draft 8 m.

Type: Tanker. MMSI: 636014957.

Date/timePositionNaut miles runAvg speedWind from/ knotsBaromVisibWave heightAir tempDewpointWater temp
2015-May-30 05:13N 02°02' E 102°10'1014.7
2015-May-30 04:33N 01°56' E 102°19'1514.7
2015-May-30 03:34N 01°49' E 102°32'1514.4
2015-May-30 02:33N 01°44' E 102°45'7112.9
2015-May-29 21:04N 01°10' E 103°47'610.2
2015-May-29 20:32N 01°13' E 103°52'4 3.9
2015-May-29 19:31N 01°15' E 103°55'0 0.0
2015-May-29 18:28N 01°15' E 103°55'0 0.0
2015-May-29 17:25N 01°15' E 103°55'0 0.0
2015-May-29 16:28N 01°15' E 103°55'0 0.1
2015-May-29 15:22N 01°15' E 103°55'0 0.1
2015-May-29 14:25N 01°15' E 103°55'0 0.0
2015-May-29 13:28N 01°15' E 103°55'0 0.0
2015-May-29 12:04N 01°15' E 103°55'0 0.0
2015-May-29 11:28N 01°15' E 103°55'0 0.0
2015-May-29 10:28N 01°15' E 103°55'6 6.5
2015-May-29 09:33N 01°16' E 104°01'1010.2
2015-May-29 08:32N 01°17' E 104°11'  
2015-May-24 01:32N 22°08' E 114°16'1210.5
2015-May-24 00:22N 22°16' E 114°06'10 9.2
2015-May-23 23:14N 22°21' E 113°56'5 0.1
2015-May-22 05:10N 22°21' E 114°02'5 7.5
2015-May-22 04:33N 22°18' E 114°06'11 8.7
2015-May-22 03:15N 22°09' E 114°13'4 5.1
2015-May-22 02:27N 22°10' E 114°09'0 0.0
2015-May-22 00:27N 22°10' E 114°09'0 0.0
2015-May-21 22:09N 22°10' E 114°09'0 0.1
2015-May-21 21:15N 22°10' E 114°09'0 0.0
2015-May-21 20:33N 22°10' E 114°09'1 0.5
2015-May-21 19:33N 22°09' E 114°09'9 9.1
2015-May-21 18:33N 22°08' E 114°18'1211.6
2015-May-21 17:30N 22°08' E 114°32'  

Dump ship's entire track history